sensor_id;sensor_type;location;lat;lon;timestamp;pressure;altitude;pressure_sealevel;temperature;humidity
59650;BME280;46162;57.568;25.814;2024-01-30T00:00:09;102061.78;;;-0.65;100.00
59650;BME280;46162;57.568;25.814;2024-01-30T00:02:38;102036.16;;;-0.64;100.00
59650;BME280;46162;57.568;25.814;2024-01-30T00:05:07;102042.34;;;-0.65;100.00
59650;BME280;46162;57.568;25.814;2024-01-30T00:07:36;102048.50;;;-0.65;100.00
59650;BME280;46162;57.568;25.814;2024-01-30T00:10:05;102052.13;;;-0.67;100.00
59650;BME280;46162;57.568;25.814;2024-01-30T00:12:34;102045.00;;;-0.65;100.00
59650;BME280;46162;57.568;25.814;2024-01-30T00:15:05;102040.56;;;-0.65;100.00
59650;BME280;46162;57.568;25.814;2024-01-30T00:17:37;102053.81;;;-0.65;100.00
59650;BME280;46162;57.568;25.814;2024-01-30T00:20:06;102049.44;;;-0.66;100.00
59650;BME280;46162;57.568;25.814;2024-01-30T00:22:36;102051.25;;;-0.68;100.00
59650;BME280;46162;57.568;25.814;2024-01-30T00:25:05;102045.09;;;-0.68;100.00
59650;BME280;46162;57.568;25.814;2024-01-30T00:27:34;102053.88;;;-0.66;100.00
59650;BME280;46162;57.568;25.814;2024-01-30T00:30:05;102055.59;;;-0.65;100.00
59650;BME280;46162;57.568;25.814;2024-01-30T00:32:34;102063.63;;;-0.67;100.00
59650;BME280;46162;57.568;25.814;2024-01-30T00:35:03;102058.31;;;-0.67;100.00
59650;BME280;46162;57.568;25.814;2024-01-30T00:37:32;102057.44;;;-0.67;100.00
59650;BME280;46162;57.568;25.814;2024-01-30T00:40:00;102066.31;;;-0.68;100.00
59650;BME280;46162;57.568;25.814;2024-01-30T00:42:29;102068.13;;;-0.70;100.00
59650;BME280;46162;57.568;25.814;2024-01-30T00:44:58;102068.25;;;-0.73;100.00
59650;BME280;46162;57.568;25.814;2024-01-30T00:47:28;102063.78;;;-0.73;100.00
59650;BME280;46162;57.568;25.814;2024-01-30T00:49:56;102067.28;;;-0.71;100.00
59650;BME280;46162;57.568;25.814;2024-01-30T00:52:25;102065.59;;;-0.73;100.00
59650;BME280;46162;57.568;25.814;2024-01-30T00:54:54;102081.41;;;-0.70;100.00
59650;BME280;46162;57.568;25.814;2024-01-30T00:57:23;102085.81;;;-0.69;100.00
59650;BME280;46162;57.568;25.814;2024-01-30T00:59:52;102084.03;;;-0.69;100.00
59650;BME280;46162;57.568;25.814;2024-01-30T01:02:20;102075.13;;;-0.68;100.00
59650;BME280;46162;57.568;25.814;2024-01-30T01:04:50;102071.66;;;-0.70;100.00
59650;BME280;46162;57.568;25.814;2024-01-30T01:07:19;102070.78;;;-0.70;100.00
59650;BME280;46162;57.568;25.814;2024-01-30T01:09:47;102079.69;;;-0.71;100.00
59650;BME280;46162;57.568;25.814;2024-01-30T01:12:16;102070.88;;;-0.73;100.00
59650;BME280;46162;57.568;25.814;2024-01-30T01:14:44;102068.28;;;-0.75;100.00
59650;BME280;46162;57.568;25.814;2024-01-30T01:17:13;102072.72;;;-0.75;100.00
59650;BME280;46162;57.568;25.814;2024-01-30T01:19:42;102074.50;;;-0.76;100.00
59650;BME280;46162;57.568;25.814;2024-01-30T01:22:12;102072.84;;;-0.80;100.00
59650;BME280;46162;57.568;25.814;2024-01-30T01:24:41;102079.97;;;-0.82;100.00
59650;BME280;46162;57.568;25.814;2024-01-30T01:27:09;102087.13;;;-0.84;100.00
59650;BME280;46162;57.568;25.814;2024-01-30T01:29:38;102081.84;;;-0.85;100.00
59650;BME280;46162;57.568;25.814;2024-01-30T01:32:07;102085.38;;;-0.85;100.00
59650;BME280;46162;57.568;25.814;2024-01-30T01:34:35;102081.00;;;-0.86;100.00
59650;BME280;46162;57.568;25.814;2024-01-30T01:37:04;102076.59;;;-0.87;100.00
59650;BME280;46162;57.568;25.814;2024-01-30T01:39:34;102084.59;;;-0.89;100.00
59650;BME280;46162;57.568;25.814;2024-01-30T01:42:04;102083.78;;;-0.91;100.00
59650;BME280;46162;57.568;25.814;2024-01-30T01:44:32;102085.63;;;-0.94;100.00
59650;BME280;46162;57.568;25.814;2024-01-30T01:47:01;102094.47;;;-0.94;100.00
59650;BME280;46162;57.568;25.814;2024-01-30T01:49:30;102090.06;;;-0.95;100.00
59650;BME280;46162;57.568;25.814;2024-01-30T01:51:59;102096.22;;;-0.94;100.00
59650;BME280;46162;57.568;25.814;2024-01-30T01:54:29;102083.91;;;-0.95;100.00
59650;BME280;46162;57.568;25.814;2024-01-30T01:57:00;102092.78;;;-0.96;100.00
59650;BME280;46162;57.568;25.814;2024-01-30T01:59:29;102091.88;;;-0.97;100.00
59650;BME280;46162;57.568;25.814;2024-01-30T02:01:57;102079.53;;;-0.96;100.00
59650;BME280;46162;57.568;25.814;2024-01-30T02:04:26;102083.13;;;-0.99;100.00
59650;BME280;46162;57.568;25.814;2024-01-30T02:06:55;102085.72;;;-0.97;100.00
59650;BME280;46162;57.568;25.814;2024-01-30T02:09:24;102086.69;;;-1.00;100.00
59650;BME280;46162;57.568;25.814;2024-01-30T02:11:53;102093.78;;;-1.00;100.00
59650;BME280;46162;57.568;25.814;2024-01-30T02:14:23;102084.84;;;-0.98;100.00
59650;BME280;46162;57.568;25.814;2024-01-30T02:16:56;102082.09;;;-0.93;100.00
59650;BME280;46162;57.568;25.814;2024-01-30T02:19:25;102094.53;;;-0.97;100.00
59650;BME280;46162;57.568;25.814;2024-01-30T02:21:55;102095.28;;;-0.92;100.00
59650;BME280;46162;57.568;25.814;2024-01-30T02:24:24;102090.66;;;-0.85;100.00
59650;BME280;46162;57.568;25.814;2024-01-30T02:26:52;102082.63;;;-0.82;100.00
59650;BME280;46162;57.568;25.814;2024-01-30T02:29:21;102090.78;;;-0.88;100.00
59650;BME280;46162;57.568;25.814;2024-01-30T02:31:50;102092.50;;;-0.87;100.00
59650;BME280;46162;57.568;25.814;2024-01-30T02:34:19;102078.25;;;-0.83;100.00
59650;BME280;46162;57.568;25.814;2024-01-30T02:36:48;102086.22;;;-0.84;100.00
59650;BME280;46162;57.568;25.814;2024-01-30T02:39:18;102068.47;;;-0.81;100.00
59650;BME280;46162;57.568;25.814;2024-01-30T02:41:47;102074.59;;;-0.79;100.00
59650;BME280;46162;57.568;25.814;2024-01-30T02:44:15;102073.88;;;-0.84;100.00
59650;BME280;46162;57.568;25.814;2024-01-30T02:46:44;102077.38;;;-0.83;100.00
59650;BME280;46162;57.568;25.814;2024-01-30T02:49:13;102074.41;;;-0.73;100.00
59650;BME280;46162;57.568;25.814;2024-01-30T02:51:42;102076.06;;;-0.69;100.00
59650;BME280;46162;57.568;25.814;2024-01-30T02:54:10;102075.22;;;-0.71;100.00
59650;BME280;46162;57.568;25.814;2024-01-30T02:56:40;102061.19;;;-0.74;100.00
59650;BME280;46162;57.568;25.814;2024-01-30T02:59:09;102064.97;;;-0.81;100.00
59650;BME280;46162;57.568;25.814;2024-01-30T03:01:44;102063.63;;;-0.67;100.00
59650;BME280;46162;57.568;25.814;2024-01-30T03:04:13;102061.03;;;-0.70;100.00
59650;BME280;46162;57.568;25.814;2024-01-30T03:06:45;102068.25;;;-0.73;100.00
59650;BME280;46162;57.568;25.814;2024-01-30T03:09:16;102071.97;;;-0.80;100.00
59650;BME280;46162;57.568;25.814;2024-01-30T03:11:46;102072.94;;;-0.83;100.00
59650;BME280;46162;57.568;25.814;2024-01-30T03:14:15;102082.59;;;-0.80;100.00
59650;BME280;46162;57.568;25.814;2024-01-30T03:16:44;102076.94;;;-0.68;100.00
59650;BME280;46162;57.568;25.814;2024-01-30T03:19:13;102079.72;;;-0.73;100.00
59650;BME280;46162;57.568;25.814;2024-01-30T03:21:41;102085.75;;;-0.68;100.00
59650;BME280;46162;57.568;25.814;2024-01-30T03:24:10;102102.00;;;-0.80;100.00
59650;BME280;46162;57.568;25.814;2024-01-30T03:26:38;102101.19;;;-0.82;100.00
59650;BME280;46162;57.568;25.814;2024-01-30T03:29:09;102103.72;;;-0.77;100.00
59650;BME280;46162;57.568;25.814;2024-01-30T03:31:39;102101.13;;;-0.79;100.00
59650;BME280;46162;57.568;25.814;2024-01-30T03:34:07;102113.56;;;-0.82;100.00
59650;BME280;46162;57.568;25.814;2024-01-30T03:36:36;102120.41;;;-0.74;100.00
59650;BME280;46162;57.568;25.814;2024-01-30T03:39:05;102118.63;;;-0.73;100.00
59650;BME280;46162;57.568;25.814;2024-01-30T03:41:33;102111.56;;;-0.74;100.00
59650;BME280;46162;57.568;25.814;2024-01-30T03:44:02;102099.81;;;-0.64;100.00
59650;BME280;46162;57.568;25.814;2024-01-30T03:46:32;102108.03;;;-0.73;100.00
59650;BME280;46162;57.568;25.814;2024-01-30T03:49:01;102105.75;;;-0.87;100.00
59650;BME280;46162;57.568;25.814;2024-01-30T03:51:30;102111.88;;;-0.85;100.00
59650;BME280;46162;57.568;25.814;2024-01-30T03:53:58;102109.34;;;-0.90;100.00
59650;BME280;46162;57.568;25.814;2024-01-30T03:56:28;102106.50;;;-0.82;100.00
59650;BME280;46162;57.568;25.814;2024-01-30T03:58:57;102105.34;;;-0.72;100.00
59650;BME280;46162;57.568;25.814;2024-01-30T04:01:27;102096.69;;;-0.78;100.00
59650;BME280;46162;57.568;25.814;2024-01-30T04:03:58;102087.63;;;-0.71;100.00
59650;BME280;46162;57.568;25.814;2024-01-30T04:06:27;102088.59;;;-0.74;100.00
59650;BME280;46162;57.568;25.814;2024-01-30T04:08:56;102109.06;;;-0.79;100.00
59650;BME280;46162;57.568;25.814;2024-01-30T04:11:28;102088.59;;;-0.74;100.00
59650;BME280;46162;57.568;25.814;2024-01-30T04:13:57;102090.81;;;-0.60;100.00
59650;BME280;46162;57.568;25.814;2024-01-30T04:16:25;102086.38;;;-0.59;100.00
59650;BME280;46162;57.568;25.814;2024-01-30T04:18:54;102089.84;;;-0.57;100.00
59650;BME280;46162;57.568;25.814;2024-01-30T04:21:25;102099.34;;;-0.49;100.00
59650;BME280;46162;57.568;25.814;2024-01-30T04:23:54;102101.66;;;-0.38;100.00
59650;BME280;46162;57.568;25.814;2024-01-30T04:26:24;102104.50;;;-0.44;100.00
59650;BME280;46162;57.568;25.814;2024-01-30T04:28:53;102100.78;;;-0.38;100.00
59650;BME280;46162;57.568;25.814;2024-01-30T04:31:22;102095.38;;;-0.35;100.00
59650;BME280;46162;57.568;25.814;2024-01-30T04:33:50;102096.06;;;-0.29;100.00
59650;BME280;46162;57.568;25.814;2024-01-30T04:36:20;102099.00;;;-0.38;100.00
59650;BME280;46162;57.568;25.814;2024-01-30T04:38:50;102113.22;;;-0.40;100.00
59650;BME280;46162;57.568;25.814;2024-01-30T04:41:19;102118.06;;;-0.55;100.00
59650;BME280;46162;57.568;25.814;2024-01-30T04:43:48;102112.78;;;-0.55;100.00
59650;BME280;46162;57.568;25.814;2024-01-30T04:46:16;102112.63;;;-0.50;100.00
59650;BME280;46162;57.568;25.814;2024-01-30T04:48:45;102095.66;;;-0.45;100.00
59650;BME280;46162;57.568;25.814;2024-01-30T04:51:14;102085.25;;;-0.51;100.00
59650;BME280;46162;57.568;25.814;2024-01-30T04:53:43;102084.88;;;-0.38;100.00
59650;BME280;46162;57.568;25.814;2024-01-30T04:56:13;102076.69;;;-0.32;100.00
59650;BME280;46162;57.568;25.814;2024-01-30T04:58:42;102066.44;;;-0.43;100.00
59650;BME280;46162;57.568;25.814;2024-01-30T05:01:15;102078.13;;;-0.49;100.00
59650;BME280;46162;57.568;25.814;2024-01-30T05:03:44;102089.81;;;-0.56;100.00
59650;BME280;46162;57.568;25.814;2024-01-30T05:06:13;102092.13;;;-0.45;100.00
59650;BME280;46162;57.568;25.814;2024-01-30T05:08:41;102097.91;;;-0.31;100.00
59650;BME280;46162;57.568;25.814;2024-01-30T05:11:10;102112.97;;;-0.31;100.00
59650;BME280;46162;57.568;25.814;2024-01-30T05:13:41;102112.88;;;-0.30;100.00
59650;BME280;46162;57.568;25.814;2024-01-30T05:16:09;102099.63;;;-0.30;100.00
59650;BME280;46162;57.568;25.814;2024-01-30T05:18:38;102101.66;;;-0.38;100.00
59650;BME280;46162;57.568;25.814;2024-01-30T05:21:07;102092.13;;;-0.45;100.00
59650;BME280;46162;57.568;25.814;2024-01-30T05:23:36;102096.19;;;-0.32;100.00
59650;BME280;46162;57.568;25.814;2024-01-30T05:26:05;102118.28;;;-0.31;100.00
59650;BME280;46162;57.568;25.814;2024-01-30T05:28:34;102123.22;;;-0.20;100.00
59650;BME280;46162;57.568;25.814;2024-01-30T05:31:05;102125.78;;;-0.17;100.00
59650;BME280;46162;57.568;25.814;2024-01-30T05:33:33;102130.09;;;-0.13;100.00
59650;BME280;46162;57.568;25.814;2024-01-30T05:36:03;102115.09;;;-0.14;100.00
59650;BME280;46162;57.568;25.814;2024-01-30T05:38:32;102119.69;;;-0.19;100.00
59650;BME280;46162;57.568;25.814;2024-01-30T05:41:00;102125.00;;;-0.19;100.00
59650;BME280;46162;57.568;25.814;2024-01-30T05:43:29;102119.13;;;-0.31;100.00
59650;BME280;46162;57.568;25.814;2024-01-30T05:45:58;102114.50;;;-0.24;100.00
59650;BME280;46162;57.568;25.814;2024-01-30T05:48:28;102125.72;;;-0.14;100.00
59650;BME280;46162;57.568;25.814;2024-01-30T05:50:58;102121.94;;;-0.07;100.00
59650;BME280;46162;57.568;25.814;2024-01-30T05:53:28;102121.28;;;-0.14;100.00
59650;BME280;46162;57.568;25.814;2024-01-30T05:55:57;102123.97;;;-0.15;100.00
59650;BME280;46162;57.568;25.814;2024-01-30T05:58:25;102132.84;;;-0.16;100.00
59650;BME280;46162;57.568;25.814;2024-01-30T06:00:54;102124.16;;;-0.22;100.00
59650;BME280;46162;57.568;25.814;2024-01-30T06:03:25;102122.50;;;-0.26;100.00
59650;BME280;46162;57.568;25.814;2024-01-30T06:05:56;102127.94;;;-0.30;100.00
59650;BME280;46162;57.568;25.814;2024-01-30T06:08:24;102125.75;;;-0.16;100.00
59650;BME280;46162;57.568;25.814;2024-01-30T06:10:53;102137.94;;;-0.10;100.00
59650;BME280;46162;57.568;25.814;2024-01-30T06:13:22;102139.75;;;-0.11;100.00
59650;BME280;46162;57.568;25.814;2024-01-30T06:15:51;102144.38;;;-0.17;100.00
59650;BME280;46162;57.568;25.814;2024-01-30T06:18:20;102140.81;;;-0.16;100.00
59650;BME280;46162;57.568;25.814;2024-01-30T06:20:49;102134.09;;;-0.28;100.00
59650;BME280;46162;57.568;25.814;2024-01-30T06:23:20;102117.78;;;-0.44;100.00
59650;BME280;46162;57.568;25.814;2024-01-30T06:25:49;102133.13;;;-0.26;100.00
59650;BME280;46162;57.568;25.814;2024-01-30T06:28:17;102149.06;;;-0.26;100.00
59650;BME280;46162;57.568;25.814;2024-01-30T06:30:46;102152.81;;;-0.33;100.00
59650;BME280;46162;57.568;25.814;2024-01-30T06:33:15;102150.88;;;-0.28;100.00
59650;BME280;46162;57.568;25.814;2024-01-30T06:35:44;102149.31;;;-0.35;100.00
59650;BME280;46162;57.568;25.814;2024-01-30T06:38:13;102154.63;;;-0.35;100.00
59650;BME280;46162;57.568;25.814;2024-01-30T06:40:44;102159.66;;;-0.26;100.00
59650;BME280;46162;57.568;25.814;2024-01-30T06:43:13;102149.88;;;-0.24;100.00
59650;BME280;46162;57.568;25.814;2024-01-30T06:45:41;102150.59;;;-0.18;100.00
59650;BME280;46162;57.568;25.814;2024-01-30T06:48:11;102148.94;;;-0.23;100.00
59650;BME280;46162;57.568;25.814;2024-01-30T06:50:40;102158.53;;;-0.17;100.00
59650;BME280;46162;57.568;25.814;2024-01-30T06:53:08;102161.13;;;-0.15;100.00
59650;BME280;46162;57.568;25.814;2024-01-30T06:55:38;102159.81;;;-0.30;100.00
59650;BME280;46162;57.568;25.814;2024-01-30T06:58:08;102152.63;;;-0.27;100.00
59650;BME280;46162;57.568;25.814;2024-01-30T07:00:37;102160.81;;;-0.34;100.00
59650;BME280;46162;57.568;25.814;2024-01-30T07:03:05;102150.84;;;-0.26;100.00
59650;BME280;46162;57.568;25.814;2024-01-30T07:05:34;102149.06;;;-0.26;100.00
59650;BME280;46162;57.568;25.814;2024-01-30T07:08:03;102151.06;;;-0.34;100.00
59650;BME280;46162;57.568;25.814;2024-01-30T07:10:32;102151.78;;;-0.27;100.00
59650;BME280;46162;57.568;25.814;2024-01-30T07:13:01;102155.22;;;-0.25;100.00
59650;BME280;46162;57.568;25.814;2024-01-30T07:15:33;102148.81;;;-0.18;100.00
59650;BME280;46162;57.568;25.814;2024-01-30T07:18:01;102152.19;;;-0.13;100.00
59650;BME280;46162;57.568;25.814;2024-01-30T07:20:30;102150.44;;;-0.12;100.00
59650;BME280;46162;57.568;25.814;2024-01-30T07:23:00;102153.03;;;-0.11;100.00
59650;BME280;46162;57.568;25.814;2024-01-30T07:25:30;102159.13;;;-0.07;100.00
59650;BME280;46162;57.568;25.814;2024-01-30T07:27:59;102155.94;;;-0.20;100.00
59650;BME280;46162;57.568;25.814;2024-01-30T07:30:28;102161.94;;;-0.13;100.00
59650;BME280;46162;57.568;25.814;2024-01-30T07:32:59;102157.44;;;-0.10;100.00
59650;BME280;46162;57.568;25.814;2024-01-30T07:35:28;102137.16;;;-0.12;100.00
59650;BME280;46162;57.568;25.814;2024-01-30T07:37:57;102144.38;;;-0.17;100.00
59650;BME280;46162;57.568;25.814;2024-01-30T07:40:26;102152.50;;;-0.22;100.00
59650;BME280;46162;57.568;25.814;2024-01-30T07:42:55;102149.59;;;-0.14;100.00
59650;BME280;46162;57.568;25.814;2024-01-30T07:45:23;102140.38;;;-0.03;100.00
59650;BME280;46162;57.568;25.814;2024-01-30T07:47:54;102142.38;;;-0.09;100.00
59650;BME280;46162;57.568;25.814;2024-01-30T07:50:24;102141.44;;;-0.08;100.00
59650;BME280;46162;57.568;25.814;2024-01-30T07:52:56;102139.88;;;-0.15;100.00
59650;BME280;46162;57.568;25.814;2024-01-30T07:55:25;102139.06;;;-0.17;100.00
59650;BME280;46162;57.568;25.814;2024-01-30T07:57:56;102135.53;;;-0.18;100.00
59650;BME280;46162;57.568;25.814;2024-01-30T08:00:26;102130.38;;;-0.23;100.00
59650;BME280;46162;57.568;25.814;2024-01-30T08:02:56;102131.66;;;-0.36;100.00
59650;BME280;46162;57.568;25.814;2024-01-30T08:05:30;102129.06;;;-0.37;100.00
59650;BME280;46162;57.568;25.814;2024-01-30T08:08:00;102126.84;;;-0.23;100.00
59650;BME280;46162;57.568;25.814;2024-01-30T08:10:29;102131.84;;;-0.12;100.00
59650;BME280;46162;57.568;25.814;2024-01-30T08:12:58;102130.09;;;-0.13;100.00
59650;BME280;46162;57.568;25.814;2024-01-30T08:15:26;102132.75;;;-0.13;100.00
59650;BME280;46162;57.568;25.814;2024-01-30T08:17:55;102124.78;;;-0.13;100.00
59650;BME280;46162;57.568;25.814;2024-01-30T08:20:26;102122.03;;;-0.38;100.00
59650;BME280;46162;57.568;25.814;2024-01-30T08:22:57;102114.16;;;-0.41;100.00
59650;BME280;46162;57.568;25.814;2024-01-30T08:25:25;102109.25;;;-0.55;100.00
59650;BME280;46162;57.568;25.814;2024-01-30T08:27:54;102120.13;;;-0.65;100.00
59650;BME280;46162;57.568;25.814;2024-01-30T08:30:25;102114.28;;;-0.46;100.00
59650;BME280;46162;57.568;25.814;2024-01-30T08:32:54;102113.72;;;-0.57;100.00
59650;BME280;46162;57.568;25.814;2024-01-30T08:35:23;102108.50;;;-0.31;100.00
59650;BME280;46162;57.568;25.814;2024-01-30T08:37:52;102104.13;;;-0.32;100.00
59650;BME280;46162;57.568;25.814;2024-01-30T08:40:23;102103.91;;;-0.24;100.00
59650;BME280;46162;57.568;25.814;2024-01-30T08:42:52;102106.56;;;-0.24;100.00
59650;BME280;46162;57.568;25.814;2024-01-30T08:45:22;102101.00;;;-0.16;100.00
59650;BME280;46162;57.568;25.814;2024-01-30T08:47:51;102102.34;;;-0.03;100.00
59650;BME280;46162;57.568;25.814;2024-01-30T08:50:20;102098.88;;;-0.33;100.00
59650;BME280;46162;57.568;25.814;2024-01-30T08:52:49;102094.91;;;-0.20;100.00
59650;BME280;46162;57.568;25.814;2024-01-30T08:55:18;102088.25;;;-0.33;100.00
59650;BME280;46162;57.568;25.814;2024-01-30T08:57:48;102087.75;;;-0.46;100.00
59650;BME280;46162;57.568;25.814;2024-01-30T09:00:17;102085.84;;;-0.41;100.00
59650;BME280;46162;57.568;25.814;2024-01-30T09:02:46;102094.53;;;-0.36;100.00
59650;BME280;46162;57.568;25.814;2024-01-30T09:05:18;102099.09;;;-0.41;100.00
59650;BME280;46162;57.568;25.814;2024-01-30T09:07:47;102102.50;;;-0.37;100.00
59650;BME280;46162;57.568;25.814;2024-01-30T09:10:16;102105.13;;;-0.36;100.00
59650;BME280;46162;57.568;25.814;2024-01-30T09:12:48;102097.41;;;-0.15;100.00
59650;BME280;46162;57.568;25.814;2024-01-30T09:15:18;102102.56;;;-0.11;100.00
59650;BME280;46162;57.568;25.814;2024-01-30T09:17:50;102096.59;;;-0.17;100.00
59650;BME280;46162;57.568;25.814;2024-01-30T09:20:19;102089.00;;;-0.30;100.00
59650;BME280;46162;57.568;25.814;2024-01-30T09:22:49;102090.06;;;-0.35;100.00
59650;BME280;46162;57.568;25.814;2024-01-30T09:25:18;102097.91;;;-0.31;100.00
59650;BME280;46162;57.568;25.814;2024-01-30T09:27:48;102099.63;;;-0.30;100.00
59650;BME280;46162;57.568;25.814;2024-01-30T09:30:17;102089.41;;;-0.42;100.00
59650;BME280;46162;57.568;25.814;2024-01-30T09:32:46;102088.16;;;-0.30;100.00
59650;BME280;46162;57.568;25.814;2024-01-30T09:35:15;102080.28;;;-0.33;100.00
59650;BME280;46162;57.568;25.814;2024-01-30T09:37:44;102081.63;;;-0.48;100.00
59650;BME280;46162;57.568;25.814;2024-01-30T09:40:13;102084.75;;;-0.35;100.00
59650;BME280;46162;57.568;25.814;2024-01-30T09:42:49;102079.28;;;-0.29;100.00
59650;BME280;46162;57.568;25.814;2024-01-30T09:45:19;102080.53;;;-0.41;100.00
59650;BME280;46162;57.568;25.814;2024-01-30T09:47:48;102081.38;;;-0.40;100.00
59650;BME280;46162;57.568;25.814;2024-01-30T09:50:17;102083.63;;;-0.27;100.00
59650;BME280;46162;57.568;25.814;2024-01-30T09:52:47;102075.22;;;-0.41;100.00
59650;BME280;46162;57.568;25.814;2024-01-30T09:55:16;102085.25;;;-0.23;100.00
59650;BME280;46162;57.568;25.814;2024-01-30T09:57:46;102077.84;;;-0.13;100.00
59650;BME280;46162;57.568;25.814;2024-01-30T10:00:16;102079.38;;;-0.04;100.00
59650;BME280;46162;57.568;25.814;2024-01-30T10:02:45;102087.47;;;-0.09;100.00
59650;BME280;46162;57.568;25.814;2024-01-30T10:05:17;102074.94;;;-0.32;100.00
59650;BME280;46162;57.568;25.814;2024-01-30T10:07:53;102080.63;;;-0.44;100.00
59650;BME280;46162;57.568;25.814;2024-01-30T10:10:23;102080.03;;;-0.26;100.00
59650;BME280;46162;57.568;25.814;2024-01-30T10:12:52;102075.84;;;-0.05;100.00
59650;BME280;46162;57.568;25.814;2024-01-30T10:15:23;102074.25;;;-0.10;100.00
59650;BME280;46162;57.568;25.814;2024-01-30T10:17:52;102072.41;;;-0.08;100.00
59650;BME280;46162;57.568;25.814;2024-01-30T10:20:21;102071.69;;;-0.13;100.00
59650;BME280;46162;57.568;25.814;2024-01-30T10:22:50;102073.28;;;-0.08;100.00
59650;BME280;46162;57.568;25.814;2024-01-30T10:25:18;102066.25;;;-0.09;100.00
59650;BME280;46162;57.568;25.814;2024-01-30T10:27:52;102076.47;;;0.04;100.00
59650;BME280;46162;57.568;25.814;2024-01-30T10:30:23;102076.25;;;0.10;100.00
59650;BME280;46162;57.568;25.814;2024-01-30T10:32:52;102075.19;;;0.15;100.00
59650;BME280;46162;57.568;25.814;2024-01-30T10:35:21;102068.44;;;0.32;100.00
59650;BME280;46162;57.568;25.814;2024-01-30T10:37:50;102065.31;;;0.19;100.00
59650;BME280;46162;57.568;25.814;2024-01-30T10:40:21;102063.28;;;0.01;100.00
59650;BME280;46162;57.568;25.814;2024-01-30T10:42:53;102056.59;;;0.15;100.00
59650;BME280;46162;57.568;25.814;2024-01-30T10:45:26;102049.88;;;0.05;100.00
59650;BME280;46162;57.568;25.814;2024-01-30T10:47:56;102043.91;;;-0.03;100.00
59650;BME280;46162;57.568;25.814;2024-01-30T10:50:29;102033.41;;;-0.06;100.00
59650;BME280;46162;57.568;25.814;2024-01-30T10:53:01;102033.41;;;-0.06;100.00
59650;BME280;46162;57.568;25.814;2024-01-30T10:55:31;102034.66;;;0.10;100.00
59650;BME280;46162;57.568;25.814;2024-01-30T10:58:01;102036.88;;;-0.04;100.00
59650;BME280;46162;57.568;25.814;2024-01-30T11:00:31;102034.94;;;0.01;100.00
59650;BME280;46162;57.568;25.814;2024-01-30T11:03:02;102027.69;;;0.06;100.00
59650;BME280;46162;57.568;25.814;2024-01-30T11:05:33;102019.94;;;0.00;100.00
59650;BME280;46162;57.568;25.814;2024-01-30T11:08:11;102016.34;;;0.01;100.00
59650;BME280;46162;57.568;25.814;2024-01-30T11:10:46;102009.94;;;0.08;100.00
59650;BME280;46162;57.568;25.814;2024-01-30T11:13:16;102014.19;;;0.12;100.00
59650;BME280;46162;57.568;25.814;2024-01-30T11:15:47;102011.75;;;0.06;100.00
59650;BME280;46162;57.568;25.814;2024-01-30T11:18:23;102013.69;;;0.01;100.00
59650;BME280;46162;57.568;25.814;2024-01-30T11:20:55;102012.13;;;-0.05;100.00
59650;BME280;46162;57.568;25.814;2024-01-30T11:23:26;102006.00;;;-0.07;100.00
59650;BME280;46162;57.568;25.814;2024-01-30T11:25:56;102007.69;;;-0.04;100.00
59650;BME280;46162;57.568;25.814;2024-01-30T11:28:32;102011.16;;;-0.02;100.00
59650;BME280;46162;57.568;25.814;2024-01-30T11:31:07;102013.00;;;-0.04;100.00
59650;BME280;46162;57.568;25.814;2024-01-30T11:33:36;102012.16;;;-0.06;100.00
59650;BME280;46162;57.568;25.814;2024-01-30T11:36:05;102011.03;;;0.28;100.00
59650;BME280;46162;57.568;25.814;2024-01-30T11:38:35;102016.22;;;0.31;100.00
59650;BME280;46162;57.568;25.814;2024-01-30T11:41:04;102014.56;;;0.28;100.00
59650;BME280;46162;57.568;25.814;2024-01-30T11:43:33;102011.06;;;0.26;100.00
59650;BME280;46162;57.568;25.814;2024-01-30T11:46:02;102014.41;;;0.33;100.00
59650;BME280;46162;57.568;25.814;2024-01-30T11:48:33;102009.00;;;0.34;100.00
59650;BME280;46162;57.568;25.814;2024-01-30T11:51:02;102003.50;;;0.15;100.00
59650;BME280;46162;57.568;25.814;2024-01-30T11:53:31;102007.31;;;0.07;100.00
59650;BME280;46162;57.568;25.814;2024-01-30T11:55:59;102011.66;;;0.09;100.00
59650;BME280;46162;57.568;25.814;2024-01-30T11:58:28;101984.06;;;0.13;100.00
59650;BME280;46162;57.568;25.814;2024-01-30T12:00:57;101989.16;;;0.19;100.00
59650;BME280;46162;57.568;25.814;2024-01-30T12:03:27;101988.38;;;0.17;100.00
59650;BME280;46162;57.568;25.814;2024-01-30T12:05:58;101994.19;;;0.02;100.00
59650;BME280;46162;57.568;25.814;2024-01-30T12:08:27;101987.03;;;0.04;100.00
59650;BME280;46162;57.568;25.814;2024-01-30T12:10:56;101981.88;;;-0.01;100.00
59650;BME280;46162;57.568;25.814;2024-01-30T12:13:26;101983.97;;;0.16;100.00
59650;BME280;46162;57.568;25.814;2024-01-30T12:15:59;101974.91;;;0.22;100.00
59650;BME280;46162;57.568;25.814;2024-01-30T12:18:29;101975.69;;;0.26;100.00
59650;BME280;46162;57.568;25.814;2024-01-30T12:21:01;101961.81;;;0.17;100.00
59650;BME280;46162;57.568;25.814;2024-01-30T12:23:35;101963.66;;;0.15;100.00
59650;BME280;46162;57.568;25.814;2024-01-30T12:26:04;101950.97;;;0.24;100.00
59650;BME280;46162;57.568;25.814;2024-01-30T12:28:34;101940.88;;;0.08;100.00
59650;BME280;46162;57.568;25.814;2024-01-30T12:31:03;101937.94;;;0.16;100.00
59650;BME280;46162;57.568;25.814;2024-01-30T12:33:32;101928.44;;;0.10;100.00
59650;BME280;46162;57.568;25.814;2024-01-30T12:36:03;101917.72;;;0.12;100.00
59650;BME280;46162;57.568;25.814;2024-01-30T12:38:33;101926.75;;;0.08;100.00
59650;BME280;46162;57.568;25.814;2024-01-30T12:41:02;101932.31;;;0.00;100.00